Time;durP1;ratioP1;P1;durP2;ratioP2;P2;SDS_P1;SDS_P2;PMS_P1;PMS_P2;Temp;Humidity;BMP_temperature;BMP_pressure;BME280_temperature;BME280_humidity;BME280_pressure;Samples;Min_cycle;Max_cycle;Signal;HPM_P1;HPM_P2
2021/06/08 00:00:25;;;;;;;44.90;36.55;;;12.80;99.90;;;;;;5091427;28;20046;-67
2021/06/08 00:02:52;;;;;;;47.53;37.45;;;12.80;99.90;;;;;;5091636;28;20032;-67
2021/06/08 00:05:20;;;;;;;51.50;39.55;;;12.80;99.90;;;;;;5091599;28;20089;-67
2021/06/08 00:07:47;;;;;;;49.30;40.22;;;12.80;99.90;;;;;;5091408;28;20048;-67
2021/06/08 00:10:14;;;;;;;42.53;34.75;;;12.80;99.90;;;;;;5091375;28;20052;-67
2021/06/08 00:12:40;;;;;;;44.95;35.20;;;12.90;99.90;;;;;;5091517;28;20039;-67
2021/06/08 00:15:07;;;;;;;54.75;39.00;;;13.00;99.90;;;;;;5091537;28;20048;-67
2021/06/08 00:17:33;;;;;;;44.40;35.95;;;12.80;99.90;;;;;;5091365;28;20036;-67
2021/06/08 00:19:59;;;;;;;46.42;37.38;;;12.90;99.90;;;;;;5091197;28;20052;-66
2021/06/08 00:22:25;;;;;;;46.90;37.08;;;12.80;99.90;;;;;;5091002;28;20105;-66
2021/06/08 00:24:52;;;;;;;44.95;36.92;;;12.90;99.90;;;;;;5091337;28;20052;-66
2021/06/08 00:27:18;;;;;;;46.53;36.50;;;12.90;99.90;;;;;;5091247;28;20044;-66
2021/06/08 00:29:44;;;;;;;54.50;42.60;;;13.00;99.90;;;;;;5091085;28;20139;-66
2021/06/08 00:32:09;;;;;;;57.00;43.53;;;12.90;99.90;;;;;;5090972;28;20032;-66
2021/06/08 00:34:37;;;;;;;66.68;48.00;;;12.70;99.90;;;;;;5090978;28;20071;-66
2021/06/08 00:37:08;;;;;;;68.93;48.90;;;12.60;99.90;;;;;;5090405;28;20113;-66
2021/06/08 00:39:34;;;;;;;61.03;44.03;;;12.50;99.90;;;;;;5090846;28;20450;-66
2021/06/08 00:42:02;;;;;;;66.95;47.55;;;12.60;99.90;;;;;;5091001;28;20466;-67
2021/06/08 00:44:28;;;;;;;67.75;47.17;;;12.70;99.90;;;;;;5090882;28;20036;-66
2021/06/08 00:46:58;;;;;;;70.75;49.10;;;12.70;99.90;;;;;;5090781;28;20451;-67
2021/06/08 00:49:24;;;;;;;73.55;48.83;;;12.70;99.90;;;;;;5090897;28;20039;-66
2021/06/08 00:51:50;;;;;;;76.50;48.30;;;12.80;99.90;;;;;;5091055;28;20044;-67
2021/06/08 00:54:15;;;;;;;83.90;51.72;;;12.70;99.90;;;;;;5090787;28;20039;-66
2021/06/08 00:56:43;;;;;;;76.65;49.85;;;12.60;99.90;;;;;;5090581;28;20075;-67
2021/06/08 00:59:10;;;;;;;74.32;49.92;;;12.60;99.90;;;;;;5091012;28;20097;-67
2021/06/08 01:01:36;;;;;;;70.95;48.85;;;12.70;99.90;;;;;;5090549;28;20078;-67
2021/06/08 01:04:07;;;;;;;70.75;48.17;;;12.70;99.90;;;;;;5090546;28;20039;-66
2021/06/08 01:06:37;;;;;;;64.93;44.92;;;12.80;99.90;;;;;;5072413;28;20374;-66
2021/06/08 01:09:05;;;;;;;50.80;39.70;;;12.70;99.90;;;;;;5090319;28;20100;-67
2021/06/08 01:11:31;;;;;;;50.92;40.28;;;12.80;99.90;;;;;;5090389;28;20119;-67
2021/06/08 01:13:57;;;;;;;49.42;40.78;;;12.80;99.90;;;;;;5090439;28;20489;-67
2021/06/08 01:16:23;;;;;;;50.92;38.90;;;12.70;99.90;;;;;;5072353;28;20036;-66
2021/06/08 01:18:49;;;;;;;52.25;40.63;;;12.70;99.90;;;;;;5090226;28;20044;-67
2021/06/08 01:21:15;;;;;;;50.17;39.30;;;12.70;99.90;;;;;;5090470;28;20040;-66
2021/06/08 01:23:42;;;;;;;54.22;41.25;;;12.70;99.90;;;;;;5090279;28;20036;-66
2021/06/08 01:26:09;;;;;;;53.78;40.13;;;12.70;99.90;;;;;;5090383;28;20391;-67
2021/06/08 01:28:36;;;;;;;55.03;40.67;;;12.70;99.90;;;;;;5090254;28;20479;-67
2021/06/08 01:31:11;;;;;;;53.38;40.30;;;12.70;99.90;;;;;;5090256;28;20109;-67
2021/06/08 01:33:40;;;;;;;50.35;38.65;;;12.70;99.90;;;;;;5090215;28;20039;-67
2021/06/08 01:36:08;;;;;;;48.05;37.72;;;12.80;99.90;;;;;;5090502;28;20040;-67
2021/06/08 01:38:39;;;;;;;49.30;38.97;;;12.70;99.90;;;;;;5090114;28;20048;-67
2021/06/08 01:41:05;;;;;;;46.80;39.28;;;12.70;99.90;;;;;;5090317;28;20082;-67
2021/06/08 01:43:31;;;;;;;45.60;37.30;;;12.70;99.90;;;;;;5090077;28;20067;-67
2021/06/08 01:45:57;;;;;;;49.20;39.40;;;12.80;99.90;;;;;;5090169;28;20046;-67
2021/06/08 01:48:23;;;;;;;46.45;38.88;;;12.80;99.90;;;;;;5092346;28;20119;-67
2021/06/08 01:50:50;;;;;;;49.42;41.20;;;12.80;99.90;;;;;;5094152;28;20048;-67
2021/06/08 01:53:37;;;;;;;49.85;39.63;;;12.90;99.90;;;;;;5094105;28;20032;-67
2021/06/08 01:56:08;;;;;;;45.35;39.30;;;12.90;99.90;;;;;;5075883;28;20040;-67
2021/06/08 01:59:12;;;;;;;47.88;39.40;;;13.00;99.90;;;;;;5094059;28;20043;-68
2021/06/08 02:02:03;;;;;;;53.22;42.00;;;12.90;99.90;;;;;;5093970;28;20566;-67
2021/06/08 02:04:42;;;;;;;47.75;39.33;;;12.80;99.90;;;;;;5093894;28;20040;-67
2021/06/08 02:07:34;;;;;;;53.45;43.55;;;12.90;99.90;;;;;;5093897;28;20389;-67
2021/06/08 02:10:26;;;;;;;52.65;41.97;;;12.70;99.90;;;;;;5093713;28;20090;-67
2021/06/08 02:12:58;;;;;;;;;;;12.80;99.90;;;;;;5094180;28;20093;-67
2021/06/08 02:15:29;;;;;;;49.80;41.53;;;12.80;99.90;;;;;;5093749;28;19927;-67
2021/06/08 02:17:57;;;;;;;57.55;44.50;;;12.80;99.90;;;;;;5093600;28;20040;-67
2021/06/08 02:20:26;;;;;;;56.50;43.38;;;12.90;99.90;;;;;;5093604;28;20531;-68
2021/06/08 02:22:55;;;;;;;60.92;46.33;;;12.90;99.90;;;;;;5093412;28;20085;-68
2021/06/08 02:25:24;;;;;;;50.75;40.08;;;13.00;99.90;;;;;;5093400;28;20047;-67
2021/06/08 02:27:56;;;;;;;52.70;42.15;;;13.10;99.90;;;;;;5093463;28;20032;-68
2021/06/08 02:30:22;;;;;;;45.45;38.72;;;13.10;99.90;;;;;;5093381;28;20044;-68
2021/06/08 02:32:49;;;;;;;50.13;39.85;;;13.00;99.90;;;;;;5093312;28;20044;-68
2021/06/08 02:35:18;;;;;;;58.80;44.85;;;13.10;99.90;;;;;;5093270;28;20033;-68
2021/06/08 02:37:57;;;;;;;56.45;43.30;;;12.80;99.90;;;;;;5093274;28;20393;-67
2021/06/08 02:40:24;;;;;;;56.63;43.45;;;12.90;99.90;;;;;;5093407;28;20157;-68
2021/06/08 02:42:50;;;;;;;56.90;42.55;;;12.90;99.90;;;;;;5093133;28;20043;-68
2021/06/08 02:45:19;;;;;;;50.95;41.22;;;13.00;99.90;;;;;;5093129;28;20414;-67
2021/06/08 02:47:50;;;;;;;54.22;42.75;;;13.00;99.90;;;;;;5093191;28;20449;-67
2021/06/08 02:50:17;;;;;;;51.17;41.88;;;13.10;99.90;;;;;;5092876;28;20075;-68
2021/06/08 02:52:45;;;;;;;53.45;41.65;;;13.20;99.90;;;;;;5093232;28;20395;-68
2021/06/08 02:55:12;;;;;;;56.05;43.45;;;13.20;99.90;;;;;;5093214;28;20139;-68
2021/06/08 02:57:39;;;;;;;47.85;39.10;;;13.20;99.90;;;;;;5093063;28;20040;-67
2021/06/08 03:00:08;;;;;;;54.22;42.15;;;13.20;99.90;;;;;;5091609;28;20515;-67
2021/06/08 03:02:37;;;;;;;57.28;43.97;;;13.20;99.90;;;;;;5092863;28;20244;-67
2021/06/08 03:05:11;;;;;;;55.95;42.55;;;13.00;99.90;;;;;;5092690;28;20040;-67
2021/06/08 03:07:38;;;;;;;62.08;44.75;;;13.10;99.90;;;;;;5092919;28;20032;-68
2021/06/08 03:10:12;;;;;;;59.17;43.88;;;12.90;99.90;;;;;;5092464;28;20048;-68
2021/06/08 03:12:52;;;;;;;58.92;44.63;;;12.90;99.90;;;;;;5092706;28;20155;-68
2021/06/08 03:15:20;;;;;;;57.03;43.10;;;12.90;99.90;;;;;;5092340;28;20036;-68
2021/06/08 03:17:46;;;;;;;55.08;42.15;;;12.90;99.90;;;;;;5092679;28;20131;-68
2021/06/08 03:20:26;;;;;;;49.75;39.38;;;13.00;99.90;;;;;;5092235;28;20370;-69
2021/06/08 03:22:55;;;;;;;56.00;43.13;;;13.10;99.90;;;;;;5092262;28;20062;-68
2021/06/08 03:25:23;;;;;;;59.83;46.13;;;13.10;99.90;;;;;;5092070;28;20075;-68
2021/06/08 03:27:50;;;;;;;62.75;44.45;;;12.90;99.90;;;;;;5091898;28;20101;-68
2021/06/08 03:30:16;;;;;;;44.10;36.13;;;12.90;99.90;;;;;;5091734;28;20044;-66
2021/06/08 03:32:43;;;;;;;46.22;37.28;;;13.00;99.90;;;;;;5091633;28;20493;-67
2021/06/08 03:35:10;;;;;;;42.42;36.30;;;13.00;99.90;;;;;;5091580;28;20424;-66
2021/06/08 03:37:37;;;;;;;51.08;38.78;;;12.90;99.90;;;;;;5092042;28;20036;-66
2021/06/08 03:40:07;;;;;;;51.13;39.38;;;12.90;99.90;;;;;;5091788;28;20078;-66
2021/06/08 03:42:33;;;;;;;47.70;37.75;;;12.90;99.90;;;;;;5092198;28;20040;-66
2021/06/08 03:44:59;;;;;;;43.45;35.33;;;13.00;99.90;;;;;;5091813;28;20036;-66
2021/06/08 03:47:25;;;;;;;54.08;38.13;;;13.00;99.90;;;;;;5091898;28;20036;-66
2021/06/08 03:49:54;;;;;;;47.35;35.65;;;12.80;99.90;;;;;;5091733;28;20374;-67
2021/06/08 03:52:20;;;;;;;51.83;38.80;;;12.60;99.90;;;;;;5091810;28;20035;-66
2021/06/08 03:54:46;;;;;;;55.25;38.97;;;12.60;99.90;;;;;;5091630;28;20060;-68
2021/06/08 03:57:18;;;;;;;47.85;36.83;;;12.60;99.90;;;;;;5092024;28;20074;-67
2021/06/08 03:59:45;;;;;;;43.28;34.10;;;12.70;99.90;;;;;;5091599;28;20052;-66
2021/06/08 04:02:11;;;;;;;40.70;33.92;;;12.70;99.90;;;;;;5091640;28;20032;-66
2021/06/08 04:04:37;;;;;;;41.30;32.65;;;12.80;99.90;;;;;;5091500;28;20446;-68
2021/06/08 04:07:03;;;;;;;36.28;30.55;;;12.90;99.90;;;;;;5091481;28;20047;-67
2021/06/08 04:09:28;;;;;;;38.33;31.13;;;13.10;99.90;;;;;;5091221;28;20091;-67
2021/06/08 04:11:56;;;;;;;38.13;31.48;;;13.10;99.90;;;;;;5091226;28;20493;-67
2021/06/08 04:14:23;;;;;;;40.95;32.58;;;13.20;99.90;;;;;;5073276;28;20040;-67
2021/06/08 04:16:49;;;;;;;38.88;32.05;;;13.20;99.90;;;;;;5073116;28;20123;-67
2021/06/08 04:19:15;;;;;;;39.15;31.35;;;13.30;99.90;;;;;;5091247;28;20114;-67
2021/06/08 04:21:42;;;;;;;40.63;33.30;;;13.40;99.90;;;;;;5073048;28;20032;-68
2021/06/08 04:24:10;;;;;;;38.20;31.27;;;13.30;99.90;;;;;;5091128;28;20067;-67
2021/06/08 04:26:36;;;;;;;42.45;33.70;;;13.40;99.90;;;;;;5091003;28;20469;-67
2021/06/08 04:29:04;;;;;;;47.00;34.90;;;13.40;99.90;;;;;;5091227;28;20126;-67
2021/06/08 04:31:34;;;;;;;45.15;34.90;;;13.40;99.90;;;;;;5091331;28;20036;-67
2021/06/08 04:34:01;;;;;;;47.28;35.15;;;13.50;99.90;;;;;;5091044;28;20067;-68
2021/06/08 04:36:26;;;;;;;49.65;38.33;;;13.50;99.90;;;;;;5090788;28;20071;-67
2021/06/08 04:38:54;;;;;;;50.95;37.95;;;13.50;99.90;;;;;;5090959;28;20040;-67
2021/06/08 04:41:21;;;;;;;52.03;39.47;;;13.40;99.90;;;;;;5090823;28;20450;-67
2021/06/08 04:43:47;;;;;;;56.15;41.28;;;13.40;99.90;;;;;;5090845;28;20036;-67
2021/06/08 04:46:16;;;;;;;54.83;39.92;;;13.30;99.90;;;;;;5090730;28;20032;-67
2021/06/08 04:48:48;;;;;;;53.97;38.95;;;13.30;99.90;;;;;;5090767;28;20640;-67
2021/06/08 04:51:34;;;;;;;53.28;39.20;;;13.40;99.90;;;;;;5061837;28;20144;-67
2021/06/08 04:54:11;;;;;;;51.20;38.95;;;13.30;99.90;;;;;;5094310;28;20039;-67
2021/06/08 04:56:48;;;;;;;58.85;42.05;;;13.50;99.90;;;;;;5090467;28;20508;-67
2021/06/08 04:59:18;;;;;;;64.38;42.28;;;13.40;99.90;;;;;;5090530;28;20044;-67
2021/06/08 05:01:45;;;;;;;57.47;40.85;;;13.20;99.90;;;;;;5072536;28;20064;-67
2021/06/08 05:04:13;;;;;;;56.38;40.72;;;13.30;99.90;;;;;;5090606;28;20515;-68
2021/06/08 05:06:45;;;;;;;61.55;42.85;;;13.40;99.90;;;;;;5090424;28;20042;-68
2021/06/08 05:09:19;;;;;;;63.10;42.28;;;13.40;99.90;;;;;;5072313;28;20047;-67
2021/06/08 05:11:50;;;;;;;55.20;38.35;;;13.40;99.90;;;;;;5090347;28;20123;-68
2021/06/08 05:14:16;;;;;;;57.45;40.53;;;13.60;99.90;;;;;;5090429;28;20469;-68
2021/06/08 05:16:48;;;;;;;55.95;38.80;;;13.40;99.90;;;;;;5090454;28;20049;-68
2021/06/08 05:19:18;;;;;;;61.35;42.38;;;13.50;99.90;;;;;;5090295;28;20048;-67
2021/06/08 05:21:54;;;;;;;66.75;42.42;;;13.60;99.90;;;;;;5090087;28;20051;-68
2021/06/08 05:24:22;;;;;;;69.88;44.08;;;13.60;99.90;;;;;;5071871;28;20107;-67
2021/06/08 05:26:50;;;;;;;76.00;45.33;;;13.60;99.90;;;;;;5090147;28;20097;-67
2021/06/08 05:29:24;;;;;;;71.32;44.95;;;13.50;99.90;;;;;;5090540;28;20040;-67
2021/06/08 05:31:54;;;;;;;65.63;41.83;;;13.50;99.90;;;;;;5090185;28;20050;-67
2021/06/08 05:34:20;;;;;;;65.55;42.88;;;13.60;99.90;;;;;;5090401;28;20032;-67
2021/06/08 05:36:47;;;;;;;60.55;40.53;;;13.70;99.90;;;;;;5090116;28;20038;-68
2021/06/08 05:39:13;;;;;;;54.15;37.58;;;13.80;99.90;;;;;;5090175;28;20036;-67
2021/06/08 05:41:39;;;;;;;54.80;39.30;;;14.00;99.90;;;;;;5072088;28;20398;-67
2021/06/08 05:44:12;;;;;;;50.15;35.03;;;14.00;99.90;;;;;;5089975;28;20040;-67
2021/06/08 05:46:38;;;;;;;47.95;34.58;;;13.90;99.90;;;;;;5089967;28;20388;-68
2021/06/08 05:49:08;;;;;;;44.72;32.42;;;14.10;99.90;;;;;;5090161;28;20087;-67
2021/06/08 05:51:54;;;;;;;44.78;33.63;;;14.20;99.90;;;;;;5075057;28;20082;-67
2021/06/08 05:54:21;;;;;;;46.83;34.25;;;14.20;99.90;;;;;;5090092;28;20043;-67
2021/06/08 05:56:47;;;;;;;41.65;30.88;;;14.20;99.90;;;;;;5089885;28;20470;-68
2021/06/08 05:59:15;;;;;;;35.28;28.20;;;14.30;99.90;;;;;;5089886;28;20036;-67
2021/06/08 06:01:41;;;;;;;33.85;27.45;;;14.40;99.90;;;;;;5089936;28;20044;-68
2021/06/08 06:04:11;;;;;;;36.22;29.48;;;14.30;99.90;;;;;;5089883;28;20138;-68
2021/06/08 06:06:39;;;;;;;34.80;28.90;;;14.40;99.90;;;;;;5090069;28;20040;-68
2021/06/08 06:09:05;;;;;;;34.70;28.27;;;14.30;99.90;;;;;;5089683;28;20052;-67
2021/06/08 06:11:32;;;;;;;34.88;27.67;;;14.30;99.90;;;;;;5071754;28;20101;-67
2021/06/08 06:14:01;;;;;;;31.23;26.55;;;14.30;99.90;;;;;;5089844;28;20093;-68
2021/06/08 06:16:30;;;;;;;35.38;28.92;;;14.10;99.90;;;;;;5090521;28;20035;-68
2021/06/08 06:19:01;;;;;;;39.65;28.45;;;14.20;99.90;;;;;;5089726;28;20032;-68
2021/06/08 06:21:29;;;;;;;39.45;29.10;;;14.30;99.90;;;;;;5089817;28;20215;-68
2021/06/08 06:23:55;;;;;;;25.05;21.48;;;14.40;99.90;;;;;;5071679;28;20032;-68
2021/06/08 06:26:25;;;;;;;30.23;24.75;;;14.20;99.90;;;;;;5089764;28;20044;-68
2021/06/08 06:29:13;;;;;;;27.23;22.77;;;14.30;99.90;;;;;;5060614;28;20563;-68
2021/06/08 06:31:46;;;;;;;26.33;22.33;;;14.60;99.90;;;;;;5089896;28;20036;-67
2021/06/08 06:34:14;;;;;;;29.70;24.05;;;14.70;99.90;;;;;;5089677;28;20440;-67
2021/06/08 06:36:45;;;;;;;28.30;22.45;;;14.90;99.90;;;;;;5093305;28;20032;-68
2021/06/08 06:39:16;;;;;;;32.25;26.25;;;14.80;99.90;;;;;;5093057;28;20534;-68
2021/06/08 06:41:44;;;;;;;30.27;23.95;;;15.00;99.90;;;;;;5075117;28;20102;-67
2021/06/08 06:44:13;;;;;;;29.15;23.13;;;15.30;99.90;;;;;;5093081;28;20139;-68
2021/06/08 06:46:40;;;;;;;24.67;21.05;;;15.20;99.90;;;;;;5093203;28;20093;-67
2021/06/08 06:49:07;;;;;;;25.23;20.48;;;15.30;99.90;;;;;;5093081;28;20040;-68
2021/06/08 06:51:37;;;;;;;26.23;21.98;;;15.60;99.90;;;;;;5093135;28;20062;-68
2021/06/08 06:54:04;;;;;;;25.92;21.52;;;15.70;99.90;;;;;;5092910;28;20392;-69
2021/06/08 06:56:30;;;;;;;25.90;21.88;;;15.80;99.90;;;;;;5092909;28;20097;-67
2021/06/08 06:58:58;;;;;;;24.17;21.35;;;15.90;99.90;;;;;;5092735;28;20443;-68
2021/06/08 07:01:25;;;;;;;21.48;19.17;;;16.10;99.90;;;;;;5092828;28;20177;-68
2021/06/08 07:03:53;;;;;;;24.63;21.42;;;16.30;99.10;;;;;;5074732;28;20067;-69
2021/06/08 07:06:20;;;;;;;22.15;19.10;;;16.30;99.10;;;;;;5092764;28;20032;-66
2021/06/08 07:08:52;;;;;;;22.55;19.90;;;16.40;98.40;;;;;;5092391;28;20072;-66
2021/06/08 07:11:19;;;;;;;24.08;20.35;;;16.30;98.70;;;;;;5092760;28;20055;-66
2021/06/08 07:13:48;;;;;;;22.52;19.60;;;16.30;99.00;;;;;;5092575;28;20054;-66
2021/06/08 07:16:15;;;;;;;24.17;20.95;;;16.30;98.70;;;;;;5092623;28;20035;-66
2021/06/08 07:18:47;;;;;;;22.65;19.50;;;16.20;99.00;;;;;;5092458;28;20067;-66
2021/06/08 07:21:19;;;;;;;23.15;20.60;;;16.30;99.10;;;;;;5092324;28;20102;-66
2021/06/08 07:23:50;;;;;;;22.45;20.13;;;15.70;99.40;;;;;;5092293;28;20477;-66
2021/06/08 07:26:17;;;;;;;22.75;20.35;;;16.10;99.10;;;;;;5092342;28;20504;-66
2021/06/08 07:29:11;;;;;;;20.60;18.23;;;16.10;99.30;;;;;;5077294;28;20040;-66
2021/06/08 07:31:58;;;;;;;21.15;18.77;;;16.20;98.70;;;;;;5092240;28;20551;-66
2021/06/08 07:34:34;;;;;;;19.45;17.27;;;16.60;98.60;;;;;;5092096;28;20047;-66
2021/06/08 07:37:03;;;;;;;19.42;16.90;;;16.90;98.50;;;;;;5092079;28;20064;-66
2021/06/08 07:40:01;;;;;;;21.67;18.83;;;17.10;97.10;;;;;;5091788;28;20071;-66
2021/06/08 07:42:39;;;;;;;21.27;18.58;;;17.30;97.40;;;;;;5092254;28;20048;-66
2021/06/08 07:45:08;;;;;;;20.60;17.40;;;16.90;97.80;;;;;;5091712;28;20133;-66
2021/06/08 07:47:56;;;;;;;20.50;18.30;;;17.20;97.90;;;;;;5076960;28;20048;-66
2021/06/08 07:50:33;;;;;;;19.55;16.58;;;17.30;97.30;;;;;;5091699;28;20591;-66
2021/06/08 07:53:02;;;;;;;18.30;16.38;;;17.20;97.50;;;;;;5091879;28;20101;-66
2021/06/08 07:55:30;;;;;;;18.67;16.40;;;17.80;96.70;;;;;;5091809;28;20135;-66
2021/06/08 07:57:56;;;;;;;19.20;17.20;;;18.50;95.40;;;;;;5092190;28;20040;-66
2021/06/08 08:00:23;;;;;;;17.23;15.52;;;19.30;94.60;;;;;;5091466;28;20070;-64
2021/06/08 08:02:53;;;;;;;18.02;16.17;;;20.30;92.80;;;;;;5092087;28;20040;-64
2021/06/08 08:05:24;;;;;;;18.13;16.17;;;21.20;91.20;;;;;;5091534;28;20051;-65
2021/06/08 08:07:49;;;;;;;19.98;17.88;;;21.50;89.30;;;;;;5091708;28;20519;-65
2021/06/08 08:10:19;;;;;;;16.88;15.18;;;21.40;88.70;;;;;;5091282;28;20062;-65
2021/06/08 08:12:47;;;;;;;;;;;21.20;90.00;;;;;;5091949;28;20164;-65
2021/06/08 08:15:17;;;;;;;17.50;15.73;;;20.70;90.50;;;;;;5073443;28;20357;-65
2021/06/08 08:17:44;;;;;;;18.17;16.27;;;20.40;91.00;;;;;;5073167;28;20068;-65
2021/06/08 08:20:51;;;;;;;17.27;15.35;;;18.60;92.90;;;;;;5076066;28;20036;-65
2021/06/08 08:23:38;;;;;;;18.25;16.23;;;19.00;93.50;;;;;;5076251;28;20048;-65
2021/06/08 08:26:23;;;;;;;19.13;15.70;;;19.20;93.20;;;;;;5076256;28;20043;-65
2021/06/08 08:28:59;;;;;;;18.27;15.65;;;19.30;93.10;;;;;;5091244;28;20050;-65
2021/06/08 08:31:29;;;;;;;16.90;15.20;;;19.40;93.30;;;;;;5073186;28;20040;-67
2021/06/08 08:34:01;;;;;;;18.08;15.93;;;19.60;92.50;;;;;;5090895;28;20036;-68
2021/06/08 08:36:30;;;;;;;19.00;16.95;;;19.50;92.60;;;;;;5091099;28;20028;-68
2021/06/08 08:38:56;;;;;;;17.67;15.88;;;19.50;92.70;;;;;;5090915;28;20032;-67
2021/06/08 08:41:24;;;;;;;18.33;15.85;;;19.60;92.70;;;;;;5090903;28;20473;-69
2021/06/08 08:44:08;;;;;;;19.80;17.15;;;19.40;92.70;;;;;;5091262;28;20044;-67
2021/06/08 08:46:54;;;;;;;19.55;15.90;;;19.30;92.70;;;;;;5075966;28;20047;-66
2021/06/08 08:49:35;;;;;;;20.27;17.77;;;18.90;93.10;;;;;;5090984;28;20507;-66
2021/06/08 08:52:02;;;;;;;17.25;15.23;;;19.00;93.40;;;;;;5091085;28;20285;-66
2021/06/08 08:54:34;;;;;;;17.13;15.10;;;19.20;93.30;;;;;;5090712;28;20035;-67
2021/06/08 08:57:01;;;;;;;17.05;14.35;;;19.40;93.20;;;;;;5090047;28;20485;-67
2021/06/08 08:59:30;;;;;;;16.63;14.60;;;19.50;94.10;;;;;;5090260;28;20127;-67
2021/06/08 09:02:14;;;;;;;15.80;13.90;;;19.30;93.60;;;;;;5075327;28;20104;-67
2021/06/08 09:04:39;;;;;;;17.38;13.63;;;19.40;93.30;;;;;;5090479;28;20063;-67
2021/06/08 09:07:05;;;;;;;14.77;13.25;;;19.60;92.70;;;;;;5090647;28;20489;-67
2021/06/08 09:09:33;;;;;;;14.95;13.43;;;19.20;92.10;;;;;;5090214;28;20066;-67
2021/06/08 09:12:04;;;;;;;13.68;12.20;;;19.50;92.50;;;;;;5090802;28;20074;-67
2021/06/08 09:14:33;;;;;;;13.90;12.25;;;19.50;91.90;;;;;;5090501;28;20093;-67
2021/06/08 09:17:03;;;;;;;13.43;11.75;;;19.60;91.80;;;;;;5090520;28;20044;-67
2021/06/08 09:19:30;;;;;;;15.50;12.98;;;19.50;91.70;;;;;;5072355;28;20040;-67
2021/06/08 09:21:59;;;;;;;12.40;11.20;;;19.70;91.80;;;;;;5090627;28;20044;-67
2021/06/08 09:24:27;;;;;;;14.23;12.27;;;19.80;91.90;;;;;;5090315;28;20085;-67
2021/06/08 09:27:03;;;;;;;11.95;10.70;;;19.40;90.90;;;;;;5090210;28;20458;-67
2021/06/08 09:29:41;;;;;;;12.48;9.85;;;19.70;90.60;;;;;;5090282;28;20047;-70
2021/06/08 09:32:15;;;;;;;11.10;10.00;;;19.90;91.10;;;;;;5072103;28;20435;-68
2021/06/08 09:34:58;;;;;;;11.25;9.50;;;20.20;90.30;;;;;;5090245;28;20051;-68
2021/06/08 09:37:37;;;;;;;9.98;8.98;;;20.00;89.90;;;;;;5090395;28;20237;-68
2021/06/08 09:40:20;;;;;;;6.97;6.38;;;20.20;90.20;;;;;;5090109;28;20045;-68
2021/06/08 09:42:47;;;;;;;6.40;5.40;;;20.40;89.60;;;;;;5090128;28;20040;-68
2021/06/08 09:45:20;;;;;;;6.88;5.50;;;20.60;88.50;;;;;;5090081;28;20499;-67
2021/06/08 09:47:58;;;;;;;4.65;4.15;;;20.90;87.30;;;;;;5090226;28;20082;-68
2021/06/08 09:50:28;;;;;;;5.60;4.45;;;20.70;74.80;;;;;;5090148;28;20051;-68
2021/06/08 09:53:20;;;;;;;5.05;4.57;;;20.60;76.00;;;;;;5089968;28;20076;-68
2021/06/08 09:55:54;;;;;;;4.68;3.55;;;20.80;80.60;;;;;;5090212;28;20263;-68
2021/06/08 09:58:21;;;;;;;7.45;6.05;;;21.10;74.10;;;;;;5090167;28;20036;-68
2021/06/08 10:01:10;;;;;;;7.20;5.97;;;21.30;81.90;;;;;;5089779;28;20400;-68
2021/06/08 10:03:46;;;;;;;6.60;6.00;;;21.40;83.20;;;;;;5071956;28;20028;-69
2021/06/08 10:06:17;;;;;;;6.85;6.20;;;21.40;81.50;;;;;;5089819;28;20067;-68
2021/06/08 10:08:59;;;;;;;7.13;6.43;;;21.40;84.30;;;;;;5072678;28;20036;-66
2021/06/08 10:11:30;;;;;;;7.15;6.28;;;21.40;82.10;;;;;;5093771;28;20157;-67
2021/06/08 10:14:08;;;;;;;6.85;6.03;;;21.30;81.60;;;;;;5093649;28;20492;-68
2021/06/08 10:16:35;;;;;;;6.97;6.28;;;21.10;83.30;;;;;;5093671;28;20067;-68
2021/06/08 10:19:02;;;;;;;7.05;6.38;;;21.20;83.90;;;;;;5075448;28;20477;-68
2021/06/08 10:21:48;;;;;;;6.88;6.20;;;21.20;84.70;;;;;;5093414;28;20040;-68
2021/06/08 10:24:22;;;;;;;6.13;5.28;;;21.20;85.90;;;;;;5093672;28;20666;-68
2021/06/08 10:26:51;;;;;;;6.03;5.47;;;21.50;84.20;;;;;;5093624;28;20051;-68
2021/06/08 10:29:22;;;;;;;6.07;5.57;;;21.30;85.20;;;;;;5075309;28;20143;-68
2021/06/08 10:31:49;;;;;;;5.80;5.30;;;21.30;84.60;;;;;;5093543;28;20374;-68
2021/06/08 10:34:14;;;;;;;6.82;5.30;;;21.60;84.80;;;;;;5093292;28;20036;-68
2021/06/08 10:36:43;;;;;;;6.07;5.47;;;21.90;83.90;;;;;;5075130;28;20039;-68
2021/06/08 10:39:14;;;;;;;5.22;4.78;;;21.80;82.80;;;;;;5093043;28;20066;-68
2021/06/08 10:41:42;;;;;;;5.57;4.97;;;22.00;83.80;;;;;;5075173;28;20059;-68
2021/06/08 10:44:19;;;;;;;7.03;5.00;;;22.20;83.10;;;;;;5093152;28;20036;-68
2021/06/08 10:46:51;;;;;;;5.25;4.75;;;22.30;80.30;;;;;;5093012;28;20040;-68
2021/06/08 10:49:31;;;;;;;5.63;5.13;;;22.60;81.30;;;;;;5093006;28;20047;-69
2021/06/08 10:52:05;;;;;;;5.75;5.25;;;22.80;81.40;;;;;;5092884;28;20473;-68
2021/06/08 10:54:48;;;;;;;5.00;4.50;;;22.70;79.80;;;;;;5093032;28;20036;-68
2021/06/08 10:57:15;;;;;;;5.97;5.00;;;22.90;79.30;;;;;;5093248;28;20032;-68
2021/06/08 10:59:43;;;;;;;4.70;4.30;;;23.10;78.50;;;;;;5092722;28;20138;-69
2021/06/08 11:02:09;;;;;;;6.03;4.40;;;23.20;77.10;;;;;;5092884;28;20051;-68
2021/06/08 11:04:51;;;;;;;4.20;3.80;;;23.10;73.70;;;;;;5092888;28;20067;-68
2021/06/08 11:07:42;;;;;;;4.55;4.10;;;22.90;74.20;;;;;;5074484;28;20032;-69
2021/06/08 11:10:29;;;;;;;4.65;3.75;;;23.10;77.50;;;;;;5092368;28;20070;-66
2021/06/08 11:13:07;;;;;;;4.55;3.22;;;23.40;73.70;;;;;;5092465;28;20397;-67
2021/06/08 11:15:33;;;;;;;3.80;3.22;;;23.20;73.60;;;;;;5092602;28;20121;-67
2021/06/08 11:17:59;;;;;;;6.05;3.42;;;23.30;73.90;;;;;;5092573;28;20363;-67
2021/06/08 11:20:27;;;;;;;4.47;3.35;;;23.50;75.40;;;;;;5091402;28;20044;-68
2021/06/08 11:22:58;;;;;;;3.50;2.72;;;23.60;75.00;;;;;;5092285;28;20047;-71
2021/06/08 11:25:53;;;;;;;4.07;2.60;;;23.50;69.10;;;;;;5092724;22;20052;-66
2021/06/08 11:28:19;;;;;;;4.68;2.60;;;23.30;70.00;;;;;;5054329;28;20052;-66
2021/06/08 11:30:56;;;;;;;2.67;2.38;;;23.10;69.50;;;;;;5072556;28;20048;-66
2021/06/08 11:33:29;;;;;;;2.75;2.55;;;23.40;72.40;;;;;;5071830;28;20055;-66
2021/06/08 11:35:55;;;;;;;4.38;2.30;;;23.40;67.90;;;;;;5072041;28;20056;-66
2021/06/08 11:38:30;;;;;;;2.95;2.17;;;23.30;69.50;;;;;;5053878;28;20549;-66
2021/06/08 11:41:04;;;;;;;4.35;2.60;;;23.50;68.50;;;;;;5071855;28;20052;-67
2021/06/08 11:43:30;;;;;;;2.22;1.90;;;23.60;65.10;;;;;;5071607;28;20044;-67
2021/06/08 11:46:10;;;;;;;2.10;2.00;;;23.60;66.20;;;;;;5071624;28;20319;-66
2021/06/08 11:48:48;;;;;;;2.25;2.05;;;23.50;66.40;;;;;;5071607;28;20045;-66
2021/06/08 11:51:22;;;;;;;2.70;2.20;;;23.80;70.20;;;;;;5053808;28;20055;-66
2021/06/08 11:54:05;;;;;;;2.08;1.60;;;23.80;67.30;;;;;;5071559;28;20052;-66
2021/06/08 11:56:50;;;;;;;2.75;1.85;;;24.00;64.20;;;;;;5071636;28;20079;-67
2021/06/08 11:59:30;;;;;;;2.50;2.03;;;24.00;63.00;;;;;;5071221;28;20145;-66
2021/06/08 12:01:56;;;;;;;3.05;1.80;;;24.20;71.80;;;;;;5071377;28;20496;-66
2021/06/08 12:04:26;;;;;;;3.08;1.90;;;24.30;69.80;;;;;;5071183;28;20508;-66
2021/06/08 12:07:10;;;;;;;1.85;1.67;;;24.20;65.90;;;;;;5071474;28;20158;-66
2021/06/08 12:09:45;;;;;;;2.35;1.55;;;24.20;63.30;;;;;;5071103;28;20131;-66
2021/06/08 12:12:16;;;;;;;2.97;1.50;;;24.30;64.00;;;;;;5071255;28;20075;-66
2021/06/08 12:14:51;;;;;;;3.08;1.38;;;24.20;59.90;;;;;;5071026;28;20135;-66
2021/06/08 12:17:18;;;;;;;2.00;1.40;;;24.20;63.90;;;;;;5071127;28;20468;-66
2021/06/08 12:19:44;;;;;;;3.45;1.83;;;23.70;60.60;;;;;;5071067;28;20045;-66
2021/06/08 12:22:30;;;;;;;2.10;1.65;;;24.20;68.10;;;;;;5071011;28;20513;-66
2021/06/08 12:24:58;;;;;;;3.50;1.67;;;24.30;67.60;;;;;;5070702;28;20110;-66
2021/06/08 12:27:43;;;;;;;2.22;1.98;;;24.40;64.70;;;;;;5070865;28;20036;-66
2021/06/08 12:30:16;;;;;;;2.42;2.00;;;24.50;65.70;;;;;;5070808;28;20040;-66
2021/06/08 12:32:43;;;;;;;1.70;1.60;;;24.60;65.60;;;;;;5070906;28;20357;-65
2021/06/08 12:35:21;;;;;;;2.00;1.70;;;24.70;64.60;;;;;;5070773;28;20123;-66
2021/06/08 12:37:48;;;;;;;2.40;1.80;;;24.70;63.80;;;;;;5070781;28;20375;-66
2021/06/08 12:40:16;;;;;;;1.75;1.60;;;24.80;65.70;;;;;;5070576;28;20466;-66
2021/06/08 12:42:42;;;;;;;1.85;1.40;;;24.70;59.10;;;;;;5070823;28;20075;-66
2021/06/08 12:45:08;;;;;;;1.80;1.42;;;24.50;56.80;;;;;;5070590;28;20113;-66
2021/06/08 12:47:36;;;;;;;1.65;1.55;;;24.70;62.30;;;;;;5070447;28;20478;-66
2021/06/08 12:50:13;;;;;;;2.72;1.60;;;24.70;63.60;;;;;;5052467;28;20571;-66
2021/06/08 12:52:38;;;;;;;1.40;1.30;;;24.20;52.10;;;;;;5070499;28;20064;-66